Time;durP1;ratioP1;P1;durP2;ratioP2;P2;SDS_P1;SDS_P2;PMS_P1;PMS_P2;Temp;Humidity;BMP_temperature;BMP_pressure;BME280_temperature;BME280_humidity;BME280_pressure;Samples;Min_cycle;Max_cycle;Signal;HPM_P1;HPM_P2
2019/10/14 00:01:27;;;;;;;14.1;8.4;;;;;;;14.1;97.37012;1001.072;;;;
2019/10/14 00:06:07;;;;;;;12.6;8.5;;;;;;;13.98;97.85254;1001.058;;;;
2019/10/14 00:08:32;;;;;;;12.5;8.5;;;;;;;13.91;98.07813;1001.034;;;;
2019/10/14 00:10:58;;;;;;;16.9;12.5;;;;;;;13.84;97.93555;1000.96;;;;
2019/10/14 00:13:23;;;;;;;15.5;11;;;;;;;13.78;98.18848;1000.978;;;;
2019/10/14 00:15:48;;;;;;;12.8;8.7;;;;;;;13.77;99.59082;1000.991;;;;
2019/10/14 00:18:13;;;;;;;13.5;8.7;;;;;;;13.68;100;1001.008;;;;
2019/10/14 00:20:38;;;;;;;14.3;9.5;;;;;;;13.65;100;1000.989;;;;
2019/10/14 00:23:03;;;;;;;15.7;11.1;;;;;;;13.59;100;1001.039;;;;
2019/10/14 00:25:28;;;;;;;17.4;12.3;;;;;;;13.61;99.88867;1001.057;;;;
2019/10/14 00:27:53;;;;;;;14.8;10.9;;;;;;;13.7;99.28613;1001.09;;;;
2019/10/14 00:30:19;;;;;;;13.2;9.2;;;;;;;13.75;98.65332;1001.106;;;;
2019/10/14 00:32:44;;;;;;;12.7;9;;;;;;;13.7;98.65234;1001.16;;;;
2019/10/14 00:35:09;;;;;;;13.4;9.4;;;;;;;13.67;98.76367;1001.219;;;;
2019/10/14 00:37:34;;;;;;;13.3;9.1;;;;;;;13.72;98.61035;1001.242;;;;
2019/10/14 00:39:59;;;;;;;12.7;8.4;;;;;;;13.68;98.5332;1001.253;;;;
2019/10/14 00:42:24;;;;;;;11;8.2;;;;;;;13.72;98.49707;1001.163;;;;
2019/10/14 00:44:49;;;;;;;12.7;8.2;;;;;;;13.67;98.41602;1001.198;;;;
2019/10/14 00:47:14;;;;;;;9.8;7.8;;;;;;;13.75;98.44531;1001.234;;;;
2019/10/14 00:49:40;;;;;;;11.9;8;;;;;;;13.73;98.08398;1001.218;;;;
2019/10/14 00:52:05;;;;;;;11.7;8;;;;;;;13.73;97.83008;1001.265;;;;
2019/10/14 00:54:30;;;;;;;10.6;7.7;;;;;;;13.66;98.1582;1001.258;;;;
2019/10/14 00:56:55;;;;;;;10.7;8.1;;;;;;;13.52;98.65723;1001.272;;;;
2019/10/14 00:59:20;;;;;;;11.4;7.6;;;;;;;13.54;98.44238;1001.206;;;;
2019/10/14 01:01:45;;;;;;;13.2;7.8;;;;;;;13.52;98.17578;1001.138;;;;
2019/10/14 01:04:10;;;;;;;11.5;7.9;;;;;;;13.54;98.16797;1001.165;;;;
2019/10/14 01:06:46;;;;;;;11.4;7.8;;;;;;;13.54;97.99512;1001.187;;;;
2019/10/14 01:09:00;;;;;;;11.1;7.7;;;;;;;13.55;97.73242;1001.181;;;;
2019/10/14 01:11:26;;;;;;;11.8;7.7;;;;;;;13.46;97.90527;1001.215;;;;
2019/10/14 01:13:51;;;;;;;10.8;7.6;;;;;;;13.46;97.78125;1001.2;;;;
2019/10/14 01:16:16;;;;;;;13.9;8;;;;;;;13.41;98.20703;1001.196;;;;
2019/10/14 01:18:41;;;;;;;12.1;7.9;;;;;;;13.52;98.34668;1001.204;;;;
2019/10/14 01:21:06;;;;;;;11.8;8;;;;;;;13.49;98.26172;1001.253;;;;
2019/10/14 01:23:32;;;;;;;12.4;7.6;;;;;;;13.48;98.01367;1001.329;;;;
2019/10/14 01:25:57;;;;;;;10.3;7.7;;;;;;;13.48;97.45117;1001.333;;;;
2019/10/14 01:28:22;;;;;;;10.4;7.8;;;;;;;13.47;97.47168;1001.363;;;;
2019/10/14 01:30:47;;;;;;;11.7;7.9;;;;;;;13.44;97.26953;1001.314;;;;
2019/10/14 01:33:12;;;;;;;10.6;7.8;;;;;;;13.45;97.41016;1001.32;;;;
2019/10/14 01:35:37;;;;;;;11;7.9;;;;;;;13.42;97.125;1001.361;;;;
2019/10/14 01:38:02;;;;;;;12.5;8.1;;;;;;;13.35;97.38574;1001.318;;;;
2019/10/14 01:40:27;;;;;;;9.7;7;;;;;;;13.23;97.68066;1001.383;;;;
2019/10/14 01:42:52;;;;;;;10.2;7.8;;;;;;;13.28;97.57715;1001.318;;;;
2019/10/14 01:45:17;;;;;;;10.7;8.3;;;;;;;13.23;97.68457;1001.358;;;;
2019/10/14 01:47:43;;;;;;;10.5;7.7;;;;;;;13.17;98.04785;1001.389;;;;
2019/10/14 01:50:08;;;;;;;11.3;7.9;;;;;;;13.18;97.94824;1001.399;;;;
2019/10/14 01:52:33;;;;;;;11.7;7.9;;;;;;;13.19;97.81055;1001.408;;;;
2019/10/14 01:54:58;;;;;;;12.6;7.9;;;;;;;13.14;97.76563;1001.414;;;;
2019/10/14 01:57:23;;;;;;;10.1;7.5;;;;;;;13.12;97.81934;1001.453;;;;
2019/10/14 01:59:48;;;;;;;10.7;8;;;;;;;13.11;98.01465;1001.425;;;;
2019/10/14 02:02:13;;;;;;;12.3;7.7;;;;;;;13.08;98.00684;1001.437;;;;
2019/10/14 02:04:38;;;;;;;9.1;7;;;;;;;13.04;97.97363;1001.431;;;;
2019/10/14 02:07:03;;;;;;;11.4;7.7;;;;;;;12.95;98.27539;1001.451;;;;
2019/10/14 02:09:28;;;;;;;10.4;7.8;;;;;;;13.04;98.08887;1001.427;;;;
2019/10/14 02:11:53;;;;;;;9.4;7.7;;;;;;;12.97;98.2207;1001.441;;;;
2019/10/14 02:14:18;;;;;;;10.2;7.3;;;;;;;13.01;98.35938;1001.425;;;;
2019/10/14 02:16:44;;;;;;;10.6;7.5;;;;;;;13.07;97.87598;1001.455;;;;
2019/10/14 02:19:09;;;;;;;10.3;8.2;;;;;;;13.05;97.37891;1001.443;;;;
2019/10/14 02:21:34;;;;;;;10.2;7.9;;;;;;;13.01;97.57617;1001.481;;;;
2019/10/14 02:23:59;;;;;;;10;7.6;;;;;;;13.04;97.39844;1001.485;;;;
2019/10/14 02:26:24;;;;;;;9.3;7.3;;;;;;;12.87;98.0293;1001.519;;;;
2019/10/14 02:28:49;;;;;;;9.3;7.2;;;;;;;12.75;98.81738;1001.501;;;;
2019/10/14 02:31:15;;;;;;;10.6;7.5;;;;;;;12.87;99.02832;1001.48;;;;
2019/10/14 02:33:40;;;;;;;10;7.8;;;;;;;12.97;99.17773;1001.453;;;;
2019/10/14 02:37:02;;;;;;;9;7.2;;;;;;;13;98.95605;1001.447;;;;
2019/10/14 02:38:30;;;;;;;11.2;7.1;;;;;;;13.05;97.85156;1001.45;;;;
2019/10/14 02:40:55;;;;;;;9.7;6.8;;;;;;;13.02;97.20801;1001.438;;;;
2019/10/14 02:43:20;;;;;;;11.6;7.1;;;;;;;12.99;96.97168;1001.457;;;;
2019/10/14 02:45:46;;;;;;;13.6;7.1;;;;;;;12.87;97.85449;1001.45;;;;
2019/10/14 02:48:11;;;;;;;10.8;7.3;;;;;;;12.9;97.77051;1001.462;;;;
2019/10/14 02:50:36;;;;;;;11.1;7.7;;;;;;;12.97;98.77246;1001.463;;;;
2019/10/14 02:53:01;;;;;;;10.8;7.5;;;;;;;12.97;98.24512;1001.414;;;;
2019/10/14 02:55:26;;;;;;;8.3;7.3;;;;;;;12.94;98.07813;1001.437;;;;
2019/10/14 02:57:52;;;;;;;10.1;7.2;;;;;;;12.9;97.97754;1001.423;;;;
2019/10/14 03:00:17;;;;;;;11.1;8.3;;;;;;;12.93;98.54785;1001.474;;;;
2019/10/14 03:02:42;;;;;;;9.5;7.4;;;;;;;12.99;98.43359;1001.441;;;;
2019/10/14 03:05:07;;;;;;;9.8;7.6;;;;;;;12.92;98.16602;1001.464;;;;
2019/10/14 03:07:32;;;;;;;9.9;7.3;;;;;;;12.88;97.9375;1001.493;;;;
2019/10/14 03:09:57;;;;;;;10.5;7;;;;;;;12.96;97.14941;1001.478;;;;
2019/10/14 03:12:22;;;;;;;11.8;7.9;;;;;;;12.84;97.14453;1001.465;;;;
2019/10/14 03:14:48;;;;;;;10;7.7;;;;;;;12.85;97.10254;1001.479;;;;
2019/10/14 03:17:13;;;;;;;11.3;8.5;;;;;;;12.77;97.56543;1001.471;;;;
2019/10/14 03:19:38;;;;;;;10.7;8.2;;;;;;;12.71;97.83008;1001.491;;;;
2019/10/14 03:22:03;;;;;;;13.9;8.4;;;;;;;12.73;98.52637;1001.482;;;;
2019/10/14 03:24:29;;;;;;;11.1;7.3;;;;;;;12.77;97.66895;1001.462;;;;
2019/10/14 03:26:54;;;;;;;10.7;6.9;;;;;;;12.7;97.64355;1001.477;;;;
2019/10/14 03:29:20;;;;;;;10.3;7.2;;;;;;;12.66;97.99023;1001.404;;;;
2019/10/14 03:32:31;;;;;;;10.9;7.2;;;;;;;12.6;97.89746;1001.403;;;;
2019/10/14 03:34:56;;;;;;;9.6;7.6;;;;;;;12.65;98.17383;1001.485;;;;
2019/10/14 03:37:21;;;;;;;10.6;7.7;;;;;;;12.63;97.66211;1001.463;;;;
2019/10/14 03:39:46;;;;;;;11.5;7.2;;;;;;;12.56;98.16309;1001.474;;;;
2019/10/14 03:42:11;;;;;;;10;7.6;;;;;;;12.58;98.18066;1001.478;;;;
2019/10/14 03:44:36;;;;;;;10.9;8.5;;;;;;;12.73;98.60645;1001.559;;;;
2019/10/14 03:47:02;;;;;;;8.7;7;;;;;;;12.65;97.65625;1001.527;;;;
2019/10/14 03:49:27;;;;;;;10.5;7.2;;;;;;;12.53;97.39844;1001.52;;;;
2019/10/14 03:51:52;;;;;;;10.8;7.1;;;;;;;12.55;97.51953;1001.504;;;;
2019/10/14 03:54:17;;;;;;;9.8;7.5;;;;;;;12.52;97.79883;1001.488;;;;
2019/10/14 03:56:42;;;;;;;9.1;7.4;;;;;;;12.43;98.26074;1001.477;;;;
2019/10/14 03:59:07;;;;;;;9.4;6.9;;;;;;;12.44;97.73633;1001.422;;;;
2019/10/14 04:02:28;;;;;;;10.4;7.3;;;;;;;12.37;97.93848;1001.377;;;;
2019/10/14 04:04:53;;;;;;;9.9;7.3;;;;;;;12.32;98.01855;1001.372;;;;
2019/10/14 04:07:18;;;;;;;10.2;7.6;;;;;;;12.3;98.28809;1001.35;;;;
2019/10/14 04:09:43;;;;;;;11.4;7.6;;;;;;;12.24;98.66895;1001.351;;;;
2019/10/14 04:12:08;;;;;;;9.7;7.7;;;;;;;12.22;98.68555;1001.378;;;;
2019/10/14 04:14:33;;;;;;;10.4;8.2;;;;;;;12.1;98.93457;1001.351;;;;
2019/10/14 04:16:59;;;;;;;11.6;7.8;;;;;;;12.17;98.68652;1001.308;;;;
2019/10/14 04:19:24;;;;;;;14;7.7;;;;;;;12.16;98.9834;1001.313;;;;
2019/10/14 04:21:49;;;;;;;13.6;8;;;;;;;12.11;99.16699;1001.285;;;;
2019/10/14 04:24:14;;;;;;;11.7;7.4;;;;;;;12.14;99.67871;1001.295;;;;
2019/10/14 04:26:39;;;;;;;10.5;8;;;;;;;12.21;99.83301;1001.295;;;;
2019/10/14 04:29:04;;;;;;;13.2;7.9;;;;;;;12.21;99.60254;1001.317;;;;
2019/10/14 04:31:29;;;;;;;8.5;7.3;;;;;;;12.22;98.9502;1001.285;;;;
2019/10/14 04:33:55;;;;;;;10.6;7.4;;;;;;;12.15;99.00195;1001.236;;;;
2019/10/14 04:36:19;;;;;;;9.4;7.4;;;;;;;12.13;98.62109;1001.25;;;;
2019/10/14 04:38:44;;;;;;;8.6;7.1;;;;;;;12.23;98.03223;1001.246;;;;
2019/10/14 04:41:10;;;;;;;11.1;7.6;;;;;;;12.13;98.12305;1001.218;;;;
2019/10/14 04:43:35;;;;;;;10.4;8;;;;;;;12.01;99.05176;1001.184;;;;
2019/10/14 04:46:00;;;;;;;11.6;7.9;;;;;;;12.08;99.80371;1001.198;;;;
2019/10/14 04:48:25;;;;;;;10.9;7.8;;;;;;;12.02;99.82129;1001.216;;;;
2019/10/14 04:50:50;;;;;;;11.6;8.2;;;;;;;12.15;100;1001.237;;;;
2019/10/14 04:53:15;;;;;;;11.6;7.2;;;;;;;12.15;98.94531;1001.228;;;;
2019/10/14 04:55:40;;;;;;;10.2;7.9;;;;;;;12.12;99.04004;1001.227;;;;
2019/10/14 04:58:05;;;;;;;10.8;7.6;;;;;;;12.15;99.05957;1001.253;;;;
2019/10/14 05:00:30;;;;;;;10.1;7.4;;;;;;;12.08;98.0459;1001.217;;;;
2019/10/14 05:02:55;;;;;;;10;7.7;;;;;;;12.07;98.74219;1001.28;;;;
2019/10/14 05:05:20;;;;;;;9.8;7.2;;;;;;;12.16;99.05273;1001.294;;;;
2019/10/14 05:07:45;;;;;;;9.4;7.4;;;;;;;12.13;97.74414;1001.285;;;;
2019/10/14 05:10:11;;;;;;;10.7;7.4;;;;;;;12.07;97.27246;1001.344;;;;
2019/10/14 05:12:36;;;;;;;12;7.5;;;;;;;12.04;96.92188;1001.319;;;;
2019/10/14 05:15:01;;;;;;;9.3;7.3;;;;;;;11.92;98.13379;1001.376;;;;
2019/10/14 05:17:26;;;;;;;11.2;7.9;;;;;;;11.79;98.91992;1001.407;;;;
2019/10/14 05:19:51;;;;;;;11.3;8.5;;;;;;;11.77;99.23926;1001.434;;;;
2019/10/14 05:22:16;;;;;;;12.1;8.2;;;;;;;11.86;98.68359;1001.408;;;;
2019/10/14 05:24:42;;;;;;;12.1;7.8;;;;;;;11.9;98.11816;1001.362;;;;
2019/10/14 05:27:07;;;;;;;11.7;8.1;;;;;;;11.83;98.13867;1001.395;;;;
2019/10/14 05:29:32;;;;;;;11.1;8.1;;;;;;;11.8;98.83203;1001.411;;;;
2019/10/14 05:31:57;;;;;;;13.1;7.8;;;;;;;11.88;99.48047;1001.405;;;;
2019/10/14 05:34:22;;;;;;;9.5;7.7;;;;;;;11.9;98.72852;1001.421;;;;
2019/10/14 05:36:47;;;;;;;15.3;12.7;;;;;;;11.94;97.79492;1001.47;;;;
2019/10/14 05:39:12;;;;;;;10.7;7.4;;;;;;;11.86;97.66211;1001.461;;;;
2019/10/14 05:41:37;;;;;;;11.1;7.6;;;;;;;11.8;98.39648;1001.48;;;;
2019/10/14 05:44:02;;;;;;;11.5;7.9;;;;;;;11.86;98.66113;1001.485;;;;
2019/10/14 05:46:41;;;;;;;9.9;7.5;;;;;;;12.07;98.76563;1001.567;;;;
2019/10/14 05:48:53;;;;;;;9.1;6.8;;;;;;;12.19;98.41504;1001.566;;;;
2019/10/14 05:51:18;;;;;;;10.3;6.7;;;;;;;12.41;97.53027;1001.579;;;;
2019/10/14 05:53:43;;;;;;;8.8;6.6;;;;;;;12.47;96.71875;1001.607;;;;
2019/10/14 05:56:08;;;;;;;9.3;6.3;;;;;;;12.59;96.08984;1001.617;;;;
2019/10/14 05:58:33;;;;;;;9;6.5;;;;;;;12.64;95.57031;1001.612;;;;
2019/10/14 06:01:00;;;;;;;8.8;6.5;;;;;;;12.74;95.16602;1001.66;;;;
2019/10/14 06:03:23;;;;;;;11;6.5;;;;;;;12.74;94.78809;1001.75;;;;
2019/10/14 06:05:49;;;;;;;10.1;6.8;;;;;;;12.81;94.81348;1001.741;;;;
2019/10/14 06:08:14;;;;;;;7.8;6.4;;;;;;;12.87;94.48242;1001.74;;;;
2019/10/14 06:10:39;;;;;;;9.5;6.7;;;;;;;12.93;94.17383;1001.782;;;;
2019/10/14 06:13:04;;;;;;;8.7;6.3;;;;;;;12.94;93.7959;1001.781;;;;
2019/10/14 06:15:29;;;;;;;11.7;6.6;;;;;;;12.93;93.77051;1001.792;;;;
2019/10/14 06:17:54;;;;;;;7.6;6;;;;;;;12.96;93.73047;1001.775;;;;
2019/10/14 06:20:19;;;;;;;11;6.7;;;;;;;12.99;93.50586;1001.74;;;;
2019/10/14 06:22:44;;;;;;;7.8;6.4;;;;;;;12.95;93.55566;1001.743;;;;
2019/10/14 06:25:21;;;;;;;9.9;6.5;;;;;;;13.03;92.34375;1001.793;;;;
2019/10/14 06:27:46;;;;;;;10;6.2;;;;;;;13.04;93.14941;1001.771;;;;
2019/10/14 06:30:11;;;;;;;8.8;6.2;;;;;;;13.15;92.6748;1001.807;;;;
2019/10/14 06:32:37;;;;;;;10.2;6.6;;;;;;;13.16;92.55273;1001.861;;;;
2019/10/14 06:35:02;;;;;;;8;6.1;;;;;;;13.23;92.25879;1001.787;;;;
2019/10/14 06:37:27;;;;;;;9.3;6.6;;;;;;;13.37;91.71094;1001.856;;;;
2019/10/14 06:39:52;;;;;;;8.2;5.8;;;;;;;13.48;90.93848;1001.805;;;;
2019/10/14 06:42:17;;;;;;;7.6;6.3;;;;;;;13.51;90.95605;1001.834;;;;
2019/10/14 06:44:43;;;;;;;8.4;5.9;;;;;;;13.62;90.65527;1001.823;;;;
2019/10/14 06:47:08;;;;;;;11.6;6.1;;;;;;;13.67;90.8418;1001.848;;;;
2019/10/14 06:49:33;;;;;;;9.7;6.2;;;;;;;13.65;90.57031;1001.796;;;;
2019/10/14 06:51:58;;;;;;;9.9;6.3;;;;;;;13.62;90.41309;1001.885;;;;
2019/10/14 06:54:23;;;;;;;8.2;6;;;;;;;13.59;90.83203;1001.778;;;;
2019/10/14 06:56:48;;;;;;;9.5;6.3;;;;;;;13.62;91.55469;1001.818;;;;
2019/10/14 06:59:13;;;;;;;10.3;7.8;;;;;;;13.64;92.04297;1001.806;;;;
2019/10/14 07:01:39;;;;;;;8.7;6;;;;;;;13.78;91.36035;1001.87;;;;
2019/10/14 07:04:04;;;;;;;10.6;5.8;;;;;;;14.02;90.18457;1001.803;;;;
2019/10/14 07:06:29;;;;;;;7.6;5.3;;;;;;;14.32;88.74609;1001.839;;;;
2019/10/14 07:08:55;;;;;;;8.9;5.6;;;;;;;14.67;87.06055;1001.869;;;;
2019/10/14 07:11:20;;;;;;;9.5;5.6;;;;;;;14.92;86.23047;1001.831;;;;
2019/10/14 07:13:45;;;;;;;12.2;5.7;;;;;;;15.1;85.34277;1001.824;;;;
2019/10/14 07:16:10;;;;;;;9;5.2;;;;;;;15.77;82.54297;1001.835;;;;
2019/10/14 07:18:35;;;;;;;7.5;4.9;;;;;;;16.6;80.2832;1001.845;;;;
2019/10/14 07:21:00;;;;;;;9.3;4.8;;;;;;;17.98;73.03711;1001.905;;;;
2019/10/14 07:23:25;;;;;;;8.1;4.5;;;;;;;17.8;71.98145;1001.84;;;;
2019/10/14 07:25:50;;;;;;;5.1;4;;;;;;;17.49;73.1084;1001.915;;;;
2019/10/14 07:28:16;;;;;;;10.6;4.6;;;;;;;17.1;74.87793;1001.901;;;;
2019/10/14 07:30:41;;;;;;;7.5;4.4;;;;;;;16.74;76.45215;1001.894;;;;
2019/10/14 07:33:06;;;;;;;6.4;4.5;;;;;;;16.61;77.08105;1001.846;;;;
2019/10/14 07:35:31;;;;;;;9.1;4.9;;;;;;;16.61;76.70898;1001.862;;;;
2019/10/14 07:37:56;;;;;;;7;4.4;;;;;;;16.7;76.69141;1001.865;;;;
2019/10/14 07:40:21;;;;;;;8;4.5;;;;;;;16.76;76.89844;1001.788;;;;
2019/10/14 07:42:46;;;;;;;7.7;4.6;;;;;;;16.73;76.77734;1001.785;;;;
2019/10/14 07:45:12;;;;;;;7.3;4.9;;;;;;;16.89;76.24707;1001.818;;;;
2019/10/14 07:47:37;;;;;;;8.8;4.8;;;;;;;16.88;76.0498;1001.793;;;;
2019/10/14 07:50:02;;;;;;;6.7;4.4;;;;;;;16.92;75.98633;1001.771;;;;
2019/10/14 07:52:27;;;;;;;8.1;4.4;;;;;;;17.99;72.41016;1001.79;;;;
2019/10/14 07:54:53;;;;;;;8.5;6.5;;;;;;;18.9;69.65234;1001.738;;;;
2019/10/14 07:57:18;;;;;;;7.6;4.3;;;;;;;20.33;62.77246;1001.703;;;;
2019/10/14 07:59:43;;;;;;;7.9;4.1;;;;;;;21.71;59.63477;1001.738;;;;
2019/10/14 08:02:08;;;;;;;8.1;4.1;;;;;;;22.17;56.60449;1001.774;;;;
2019/10/14 08:04:33;;;;;;;9.4;4.6;;;;;;;23.31;53.57813;1001.819;;;;
2019/10/14 08:06:58;;;;;;;10.8;3.3;;;;;;;23.43;52.74512;1001.792;;;;
2019/10/14 08:09:23;;;;;;;7.2;3.2;;;;;;;24.54;49.38965;1001.805;;;;
2019/10/14 08:11:48;;;;;;;6.9;3.4;;;;;;;25.22;48.06836;1001.722;;;;
2019/10/14 08:14:14;;;;;;;7.3;3.2;;;;;;;26.72;45.2959;1001.692;;;;
2019/10/14 08:16:39;;;;;;;4.7;3.1;;;;;;;27.33;42.8125;1001.674;;;;
2019/10/14 08:19:04;;;;;;;6.8;2.9;;;;;;;26.52;43.24609;1001.705;;;;
2019/10/14 08:21:29;;;;;;;7.7;3;;;;;;;26.36;45.17676;1001.766;;;;
2019/10/14 08:23:54;;;;;;;10.4;3.3;;;;;;;25.76;47.18945;1001.74;;;;
2019/10/14 08:26:20;;;;;;;9.5;2.7;;;;;;;25.6;46.98242;1001.706;;;;
2019/10/14 08:28:45;;;;;;;4.8;3.1;;;;;;;25.26;47.74121;1001.718;;;;
2019/10/14 08:31:10;;;;;;;5.1;3;;;;;;;26.88;44.21973;1001.752;;;;
2019/10/14 08:33:35;;;;;;;8.5;3.2;;;;;;;27.76;41.75879;1001.704;;;;
2019/10/14 08:36:00;;;;;;;5.7;3.6;;;;;;;26.75;44.57422;1001.727;;;;
2019/10/14 08:38:25;;;;;;;7;3.1;;;;;;;26.19;45.12402;1001.734;;;;
2019/10/14 08:40:50;;;;;;;6.8;3.3;;;;;;;25.85;46.83203;1001.777;;;;
2019/10/14 08:43:16;;;;;;;6.7;3.6;;;;;;;26.57;44.27148;1001.736;;;;
2019/10/14 08:45:41;;;;;;;10;3.7;;;;;;;27.03;42.66504;1001.776;;;;
2019/10/14 08:48:06;;;;;;;9.1;3.6;;;;;;;27.42;41.9043;1001.745;;;;
2019/10/14 08:50:31;;;;;;;9.8;3.6;;;;;;;26.19;44.93359;1001.785;;;;
2019/10/14 08:52:56;;;;;;;7.8;4;;;;;;;28.02;40.55664;1001.686;;;;
2019/10/14 08:55:22;;;;;;;9.2;4.1;;;;;;;28.63;40.00293;1001.697;;;;
2019/10/14 08:57:47;;;;;;;10.8;3.7;;;;;;;30.04;36.80176;1001.683;;;;
2019/10/14 09:00:12;;;;;;;7.6;4.2;;;;;;;30.47;35.65039;1001.705;;;;
2019/10/14 09:02:37;;;;;;;9.7;4;;;;;;;30.17;36.5127;1001.688;;;;
2019/10/14 09:05:03;;;;;;;7.7;4.1;;;;;;;29.08;38.51367;1001.635;;;;
2019/10/14 09:07:28;;;;;;;6.3;3.5;;;;;;;30.77;36.48926;1001.675;;;;
2019/10/14 09:09:53;;;;;;;7.3;3.9;;;;;;;28.36;41.02734;1001.651;;;;
2019/10/14 09:12:18;;;;;;;6.4;4.4;;;;;;;28.38;40.88672;1001.648;;;;
2019/10/14 09:14:43;;;;;;;8.4;3.7;;;;;;;28.99;38.94922;1001.649;;;;
2019/10/14 09:17:08;;;;;;;5.5;3.5;;;;;;;29.27;38.13672;1001.638;;;;
2019/10/14 09:19:33;;;;;;;6.9;3.2;;;;;;;28.34;40;1001.639;;;;
2019/10/14 09:21:58;;;;;;;7.1;3.3;;;;;;;27.21;42.3252;1001.607;;;;
2019/10/14 09:24:23;;;;;;;5.9;3.1;;;;;;;28.19;40.73633;1001.657;;;;
2019/10/14 09:26:48;;;;;;;5.9;3.1;;;;;;;27.1;42.71973;1001.653;;;;
2019/10/14 09:29:13;;;;;;;6;2.9;;;;;;;27.98;41.24316;1001.61;;;;
2019/10/14 09:31:39;;;;;;;5.3;3.4;;;;;;;28.47;39.9043;1001.583;;;;
2019/10/14 09:34:04;;;;;;;7.1;3.4;;;;;;;28.89;38.95215;1001.574;;;;
2019/10/14 09:36:29;;;;;;;6.6;3.2;;;;;;;28.39;39.65918;1001.575;;;;
2019/10/14 09:38:54;;;;;;;7.2;2.9;;;;;;;28.06;40.5;1001.517;;;;
2019/10/14 09:41:19;;;;;;;6.7;2.9;;;;;;;29.06;38.35742;1001.48;;;;
2019/10/14 09:43:44;;;;;;;6.8;2.8;;;;;;;28.53;39.54004;1001.508;;;;
2019/10/14 09:46:09;;;;;;;5.5;2.8;;;;;;;27.96;41.06152;1001.474;;;;
2019/10/14 09:48:34;;;;;;;7.4;3.3;;;;;;;28.48;40.01367;1001.483;;;;
2019/10/14 09:50:59;;;;;;;6.9;3.3;;;;;;;27.61;42.00586;1001.438;;;;
2019/10/14 09:53:24;;;;;;;5.3;2.6;;;;;;;29.1;38.33691;1001.435;;;;
2019/10/14 09:55:49;;;;;;;5.8;2.7;;;;;;;29.16;39.1543;1001.382;;;;
2019/10/14 09:58:14;;;;;;;7.2;2.7;;;;;;;28.5;39.58594;1001.327;;;;
2019/10/14 10:00:39;;;;;;;5.9;2.8;;;;;;;27.48;42.32715;1001.302;;;;
2019/10/14 10:03:05;;;;;;;4.7;2.5;;;;;;;29.36;38.47852;1001.263;;;;
2019/10/14 10:05:30;;;;;;;6.4;2.9;;;;;;;29.82;36.13867;1001.246;;;;
2019/10/14 10:07:55;;;;;;;4.1;2.6;;;;;;;28.2;39.21387;1001.197;;;;
2019/10/14 10:10:20;;;;;;;6.3;2.5;;;;;;;27.83;40.01465;1001.118;;;;
2019/10/14 10:12:45;;;;;;;6.5;3.1;;;;;;;28.09;39.90625;1001.098;;;;
2019/10/14 10:15:10;;;;;;;4.9;2.6;;;;;;;28.41;38.89844;1001.093;;;;
2019/10/14 10:17:35;;;;;;;4.5;2.9;;;;;;;27.5;40.96094;1001.029;;;;
2019/10/14 10:20:00;;;;;;;5.7;2.8;;;;;;;27.34;40.68457;1000.976;;;;
2019/10/14 10:22:25;;;;;;;5;2.9;;;;;;;26.87;41.86621;1000.945;;;;
2019/10/14 10:24:50;;;;;;;8.5;2.9;;;;;;;27.2;41.63574;1000.965;;;;
2019/10/14 10:27:16;;;;;;;5.3;2.5;;;;;;;27.88;39.42285;1000.938;;;;
2019/10/14 10:29:41;;;;;;;5.6;2.5;;;;;;;27.43;40.03809;1000.876;;;;
2019/10/14 10:32:06;;;;;;;4.4;2.8;;;;;;;27.06;40.9082;1000.93;;;;
2019/10/14 10:34:31;;;;;;;3.9;2.6;;;;;;;27.32;40.74219;1000.866;;;;
2019/10/14 10:36:56;;;;;;;8.4;2.8;;;;;;;28.25;38.77734;1000.858;;;;
2019/10/14 10:39:21;;;;;;;8.8;3.1;;;;;;;26.48;41.48438;1000.838;;;;
2019/10/14 10:41:46;;;;;;;6.4;2.8;;;;;;;25.61;44.34277;1000.85;;;;
2019/10/14 10:44:11;;;;;;;6.8;2.9;;;;;;;25.48;44.60254;1000.782;;;;
2019/10/14 10:46:36;;;;;;;5.8;2.8;;;;;;;25.42;46.04102;1000.758;;;;
2019/10/14 10:49:02;;;;;;;4.7;2.8;;;;;;;25.25;45.14746;1000.656;;;;
2019/10/14 10:51:27;;;;;;;5;3.2;;;;;;;24.97;45.6875;1000.62;;;;
2019/10/14 10:53:52;;;;;;;4.9;3.4;;;;;;;25.06;47.25879;1000.612;;;;
2019/10/14 10:56:17;;;;;;;5.2;2.9;;;;;;;25.18;46.0752;1000.535;;;;
2019/10/14 10:58:42;;;;;;;5.9;3.1;;;;;;;25.06;46.71289;1000.539;;;;
2019/10/14 11:01:07;;;;;;;7.1;2.8;;;;;;;24.95;47.34082;1000.461;;;;
2019/10/14 11:03:33;;;;;;;7.4;2.8;;;;;;;24.7;46.9834;1000.365;;;;
2019/10/14 11:05:58;;;;;;;4.7;2.9;;;;;;;24.66;46.70801;1000.335;;;;
2019/10/14 11:08:23;;;;;;;6.1;2.9;;;;;;;24.57;46.84082;1000.267;;;;
2019/10/14 11:10:48;;;;;;;4.2;2.8;;;;;;;24.44;45.51465;1000.247;;;;
2019/10/14 11:13:13;;;;;;;5.3;2.6;;;;;;;24.23;45.19824;1000.174;;;;
2019/10/14 11:15:39;;;;;;;5.6;2.8;;;;;;;24.12;45.89551;1000.121;;;;
2019/10/14 11:18:04;;;;;;;5.5;2.6;;;;;;;24.48;45.43555;1000.082;;;;
2019/10/14 11:20:29;;;;;;;5.9;2.6;;;;;;;24.89;44.69727;1000.046;;;;
2019/10/14 11:22:54;;;;;;;4.3;2.5;;;;;;;25.05;44.02734;1000.024;;;;
2019/10/14 11:25:20;;;;;;;4.5;2.6;;;;;;;24.96;44.62207;999.9816;;;;
2019/10/14 11:27:45;;;;;;;5.9;2.5;;;;;;;24.86;44.64746;999.8801;;;;
2019/10/14 11:30:10;;;;;;;4.5;2.6;;;;;;;24.97;45.22559;999.8469;;;;
2019/10/14 11:32:35;;;;;;;6.7;4;;;;;;;25.12;46.09277;999.791;;;;
2019/10/14 11:35:00;;;;;;;7.6;2.6;;;;;;;24.96;44.38379;999.764;;;;
2019/10/14 11:37:25;;;;;;;6.7;2.4;;;;;;;24.91;43.94238;999.6919;;;;
2019/10/14 11:39:50;;;;;;;5.4;2.7;;;;;;;24.97;44.11426;999.7217;;;;
2019/10/14 11:42:15;;;;;;;6.9;2.4;;;;;;;24.77;43.69141;999.6704;;;;
2019/10/14 11:44:40;;;;;;;5.5;2.8;;;;;;;24.94;43.51953;999.6866;;;;
2019/10/14 11:47:05;;;;;;;4.2;2.3;;;;;;;24.9;43.01855;999.6119;;;;
2019/10/14 11:49:33;;;;;;;5.6;2.7;;;;;;;24.93;43.21094;999.5853;;;;
2019/10/14 11:51:56;;;;;;;3.8;2.5;;;;;;;25.09;42.94141;999.5421;;;;
2019/10/14 11:54:21;;;;;;;4.6;2.4;;;;;;;24.97;43.12012;999.5094;;;;
2019/10/14 11:56:46;;;;;;;5.2;2.7;;;;;;;24.83;43.52051;999.5295;;;;
2019/10/14 11:59:11;;;;;;;6.4;2.9;;;;;;;24.88;43.92773;999.4708;;;;
2019/10/14 12:01:36;;;;;;;5;2.4;;;;;;;24.86;43.48828;999.4185;;;;
2019/10/14 12:04:01;;;;;;;4.5;2.4;;;;;;;24.93;44.3584;999.351;;;;
2019/10/14 12:06:26;;;;;;;4.4;2.3;;;;;;;24.87;43.54785;999.37;;;;
2019/10/14 12:08:52;;;;;;;4.9;2.2;;;;;;;24.87;44.06836;999.257;;;;
2019/10/14 12:11:16;;;;;;;4.8;2.3;;;;;;;24.8;44.16699;999.2823;;;;
2019/10/14 12:13:41;;;;;;;4.7;2.3;;;;;;;24.72;43.6748;999.2191;;;;
2019/10/14 12:16:07;;;;;;;5.5;2.5;;;;;;;24.62;44.23242;999.1522;;;;
2019/10/14 12:18:32;;;;;;;3.2;2.1;;;;;;;24.69;44.26367;999.1451;;;;
2019/10/14 12:20:57;;;;;;;4.3;2.4;;;;;;;24.72;44.60938;999.1211;;;;
2019/10/14 12:23:22;;;;;;;7.5;2.3;;;;;;;24.71;45.0459;999.0936;;;;
2019/10/14 12:25:47;;;;;;;3.9;2.5;;;;;;;24.7;44.86719;999.0366;;;;
2019/10/14 12:28:12;;;;;;;6.1;2.4;;;;;;;24.64;45.07422;998.9991;;;;
2019/10/14 12:30:37;;;;;;;5.4;2.4;;;;;;;24.63;44.94434;998.9656;;;;
2019/10/14 12:33:02;;;;;;;5.4;2.4;;;;;;;24.66;45.27637;998.8855;;;;
2019/10/14 12:35:27;;;;;;;5.2;2.3;;;;;;;24.73;45.59277;998.855;;;;
2019/10/14 12:37:53;;;;;;;5.9;2.5;;;;;;;24.8;45.71582;998.7944;;;;
2019/10/14 12:40:18;;;;;;;6;2.3;;;;;;;24.85;45.65039;998.7503;;;;
2019/10/14 12:42:43;;;;;;;7.9;2.8;;;;;;;24.97;45.91211;998.7034;;;;
2019/10/14 12:45:08;;;;;;;7.9;2.5;;;;;;;25.06;44.68945;998.6094;;;;
2019/10/14 12:47:56;;;;;;;6.8;2.4;;;;;;;25.18;44.92773;998.4615;;;;
2019/10/14 12:50:21;;;;;;;5.3;2.4;;;;;;;25.31;45.42578;998.4489;;;;
2019/10/14 12:52:46;;;;;;;4.5;2.6;;;;;;;25.29;44.13184;998.4169;;;;
2019/10/14 12:55:11;;;;;;;4.4;2.4;;;;;;;25.3;44.41797;998.3931;;;;
2019/10/14 12:57:36;;;;;;;4.2;2.3;;;;;;;25.29;44.54688;998.2888;;;;
2019/10/14 13:00:02;;;;;;;6.1;2.3;;;;;;;25.31;44.58594;998.2651;;;;
2019/10/14 13:02:27;;;;;;;4.8;2.5;;;;;;;25.35;44.64941;998.3064;;;;
2019/10/14 13:04:52;;;;;;;3.2;2.3;;;;;;;25.45;44.19629;998.2262;;;;
2019/10/14 13:07:17;;;;;;;5.7;2.5;;;;;;;25.44;44.12402;998.2195;;;;
2019/10/14 13:09:42;;;;;;;6.3;2.6;;;;;;;25.45;44.6582;998.1252;;;;
2019/10/14 13:12:07;;;;;;;5.8;2.4;;;;;;;25.44;43.74609;998.053;;;;
2019/10/14 13:14:32;;;;;;;6.1;2.5;;;;;;;25.43;44.60938;997.9529;;;;
2019/10/14 13:16:57;;;;;;;6.1;2.7;;;;;;;25.56;44.5625;997.9152;;;;
2019/10/14 13:19:22;;;;;;;4.2;2.2;;;;;;;25.54;44.08691;997.856;;;;
2019/10/14 13:21:47;;;;;;;4.2;2.2;;;;;;;25.62;43.83301;997.8139;;;;
2019/10/14 13:24:13;;;;;;;4.2;2.1;;;;;;;25.57;44.16113;997.8075;;;;
2019/10/14 13:26:38;;;;;;;4.2;2.5;;;;;;;25.6;44.18848;997.7795;;;;
2019/10/14 13:29:03;;;;;;;5;2.7;;;;;;;25.67;44.88281;997.7039;;;;
2019/10/14 13:31:28;;;;;;;5.5;2.6;;;;;;;25.81;44.78809;997.6669;;;;
2019/10/14 13:33:53;;;;;;;4.4;2.2;;;;;;;25.84;44.7334;997.5756;;;;
2019/10/14 13:36:19;;;;;;;4.6;2.7;;;;;;;25.99;44.15625;997.5648;;;;
2019/10/14 13:38:43;;;;;;;5.2;2.5;;;;;;;26.06;43.97168;997.4702;;;;
2019/10/14 13:41:09;;;;;;;9.4;2.4;;;;;;;26.08;43.90332;997.3725;;;;
2019/10/14 13:43:34;;;;;;;4.7;2.5;;;;;;;26.13;42.33008;997.3882;;;;
2019/10/14 13:45:59;;;;;;;5.2;2.6;;;;;;;26.21;42.65918;997.3323;;;;
2019/10/14 13:48:24;;;;;;;4.1;2.1;;;;;;;26.25;42.67383;997.294;;;;
2019/10/14 13:50:49;;;;;;;4.4;2.2;;;;;;;26.29;41.90625;997.2503;;;;
2019/10/14 13:53:14;;;;;;;4.8;2.3;;;;;;;26.29;42.00098;997.241;;;;
2019/10/14 13:55:39;;;;;;;5.8;2.9;;;;;;;26.27;41.40723;997.2703;;;;
2019/10/14 13:58:04;;;;;;;7.7;3.1;;;;;;;26.39;41.01367;997.2291;;;;
2019/10/14 14:00:30;;;;;;;5;2.9;;;;;;;26.3;41.65918;997.2164;;;;
2019/10/14 14:02:55;;;;;;;4.9;2.5;;;;;;;26.45;39.8916;997.1325;;;;
2019/10/14 14:05:20;;;;;;;5;2.7;;;;;;;26.52;39.92188;997.1257;;;;
2019/10/14 14:07:45;;;;;;;5.8;2.5;;;;;;;26.58;40.29492;997.0522;;;;
2019/10/14 14:10:10;;;;;;;6.9;2.5;;;;;;;26.55;40.41016;997.0302;;;;
2019/10/14 14:12:35;;;;;;;3.8;2.1;;;;;;;26.6;40.2373;997.0159;;;;